Terminal Aerodrome Forecast
Issued by NWS

Current Version | Previous Version | Graphics & Text | Print | Product List | Glossary Off
Versions: 1 2 3 4 5 6 7 8 9 10 11 12 13 14 15 16 17 18 19 20 21 22 23

000
FTUS41 KRLX 311700
TAFCKB
TAF
KCKB 311734Z 3118/0118 VRB03KT P6SM OVC045
     FM311900 VRB03KT 6SM -SHRA OVC045
     FM312300 00000KT 3SM -SHRA BR OVC030
     FM010400 00000KT 4SM -SHRA BR BKN015 OVC025
     FM010900 36008KT 5SM -SHRA BR BKN015 OVC025=

USA.gov is the U.S. government's official web portal to all federal, state and local government web resources and services.